createdAt,value
2022-07-30T00:01:46.333Z,101760.58
2022-07-30T00:04:14.007Z,101755.55
2022-07-30T00:06:41.903Z,101755.55
2022-07-30T00:09:09.742Z,101750.58
2022-07-30T00:11:37.513Z,101751.66
2022-07-30T00:14:05.350Z,101750.05
2022-07-30T00:16:33.078Z,101750.05
2022-07-30T00:19:00.844Z,101748.45
2022-07-30T00:21:38.420Z,101757.15
2022-07-30T00:24:07.097Z,101758.75
2022-07-30T00:26:34.837Z,101752.66
2022-07-30T00:29:02.519Z,101739.49
2022-07-30T00:31:30.346Z,101757.67
2022-07-30T00:33:58.197Z,101751.06
2022-07-30T00:36:25.921Z,101761.07
2022-07-30T00:38:53.612Z,101751.06
2022-07-30T00:41:22.403Z,101753.71
2022-07-30T00:43:50.138Z,101760.02
2022-07-30T00:46:18.048Z,101763.20
2022-07-30T00:48:47.324Z,101771.08
2022-07-30T00:51:15.173Z,101761.34
2022-07-30T00:53:43.060Z,101774.22
2022-07-30T00:56:10.833Z,101767.64
2022-07-30T00:58:38.582Z,101768.43
2022-07-30T01:01:06.347Z,101773.43
2022-07-30T01:03:34.059Z,101781.31
2022-07-30T01:06:02.116Z,101773.14
2022-07-30T01:08:29.802Z,101778.17
2022-07-30T01:10:58.320Z,101775.27
2022-07-30T01:13:25.988Z,101782.13
2022-07-30T01:15:53.815Z,101778.70
2022-07-30T01:18:23.889Z,101771.30
2022-07-30T01:21:05.362Z,101766.86
2022-07-30T01:23:39.365Z,101763.95
2022-07-30T01:26:13.673Z,101768.16
2022-07-30T01:28:44.331Z,101773.70
2022-07-30T01:31:14.925Z,101775.79
2022-07-30T01:33:46.366Z,101764.44
2022-07-30T01:36:17.528Z,101772.84
2022-07-30T01:38:47.427Z,101758.91
2022-07-30T01:41:17.148Z,101763.91
2022-07-30T01:43:47.863Z,101757.05
2022-07-30T01:46:18.721Z,101752.57
2022-07-30T01:48:47.129Z,101756.79
2022-07-30T01:51:15.508Z,101763.91
2022-07-30T01:53:45.513Z,101755.48
2022-07-30T01:56:16.909Z,101753.13
2022-07-30T01:58:47.716Z,101758.13
2022-07-30T02:01:15.967Z,101760.26
2022-07-30T02:03:43.885Z,101759.73
2022-07-30T02:06:18.929Z,101753.19
2022-07-30T02:08:57.501Z,101763.98
2022-07-30T02:11:44.012Z,101763.98
2022-07-30T02:14:30.387Z,101762.70
2022-07-30T02:17:00.086Z,101758.78
2022-07-30T02:19:34.298Z,101764.31
2022-07-30T02:22:09.347Z,101758.78
2022-07-30T02:24:39.811Z,101759.57
2022-07-30T02:27:13.889Z,101765.35
2022-07-30T02:29:43.754Z,101761.70
2022-07-30T02:32:15.826Z,101756.69
2022-07-30T02:34:45.852Z,101761.14
2022-07-30T02:37:16.244Z,101766.96
2022-07-30T02:39:44.964Z,101763.82
2022-07-30T02:42:16.284Z,101766.70
2022-07-30T02:44:46.506Z,101768.82
2022-07-30T02:47:17.556Z,101768.04
2022-07-30T02:49:48.389Z,101770.91
2022-07-30T02:52:17.704Z,101772.26
2022-07-30T02:54:47.052Z,101765.39
2022-07-30T02:57:18.012Z,101769.61
2022-07-30T02:59:46.275Z,101770.09
2022-07-30T03:02:15.535Z,101772.74
2022-07-30T03:04:44.829Z,101771.14
2022-07-30T03:07:17.791Z,101770.39
2022-07-30T03:09:51.362Z,101777.20
2022-07-30T03:12:22.176Z,101770.62
2022-07-30T03:14:49.984Z,101773.53
2022-07-30T03:17:19.446Z,101780.89
2022-07-30T03:19:50.531Z,101776.18
2022-07-30T03:22:20.478Z,101775.88
2022-07-30T03:24:50.460Z,101778.01
2022-07-30T03:27:19.331Z,101779.58
2022-07-30T03:29:48.510Z,101783.54
2022-07-30T03:32:16.590Z,101784.59
2022-07-30T03:34:47.457Z,101784.65
2022-07-30T03:37:15.800Z,101785.66
2022-07-30T03:39:43.630Z,101789.39
2022-07-30T03:42:11.960Z,101785.66
2022-07-30T03:44:40.151Z,101787.00
2022-07-30T03:47:09.715Z,101792.27
2022-07-30T03:49:37.453Z,101795.44
2022-07-30T03:52:05.709Z,101797.53
2022-07-30T03:54:34.845Z,101790.96
2022-07-30T03:57:04.180Z,101794.69
2022-07-30T03:59:32.432Z,101796.75
2022-07-30T04:02:07.245Z,101797.83
2022-07-30T04:04:35.558Z,101799.76
2022-07-30T04:07:03.410Z,101804.46
2022-07-30T04:09:31.364Z,101797.40
2022-07-30T04:12:00.110Z,101798.71
2022-07-30T04:14:28.301Z,101808.45
2022-07-30T04:17:04.879Z,101809.80
2022-07-30T04:19:37.778Z,101812.41
2022-07-30T04:22:07.083Z,101812.67
2022-07-30T04:24:36.274Z,101813.49
2022-07-30T04:27:04.856Z,101823.73
2022-07-30T04:29:32.778Z,101825.82
2022-07-30T04:32:00.822Z,101832.91
2022-07-30T04:34:29.083Z,101832.91
2022-07-30T04:36:56.748Z,101836.34
2022-07-30T04:39:24.489Z,101829.97
2022-07-30T04:41:52.299Z,101837.16
2022-07-30T04:44:20.840Z,101833.99
2022-07-30T04:46:48.924Z,101840.83
2022-07-30T04:49:20.460Z,101851.65
2022-07-30T04:51:50.044Z,101852.41
2022-07-30T04:54:19.141Z,101851.13
2022-07-30T04:56:53.828Z,101856.13
2022-07-30T04:59:25.043Z,101865.09
2022-07-30T05:01:54.827Z,101857.73
2022-07-30T05:04:25.677Z,101858.78
2022-07-30T05:06:54.838Z,101857.99
2022-07-30T05:09:23.508Z,101857.21
2022-07-30T05:11:52.799Z,101861.46
2022-07-30T05:14:21.508Z,101862.24
2022-07-30T05:16:49.285Z,101861.46
2022-07-30T05:19:18.076Z,101868.10
2022-07-30T05:21:45.844Z,101868.10
2022-07-30T05:24:13.585Z,101867.80
2022-07-30T05:26:41.867Z,101880.20
2022-07-30T05:29:09.581Z,101876.24
2022-07-30T05:31:47.033Z,101876.24
2022-07-30T05:34:14.693Z,101874.41
2022-07-30T05:36:43.815Z,101883.37
2022-07-30T05:39:11.546Z,101878.89
2022-07-30T05:41:39.212Z,101874.93
2022-07-30T05:44:06.924Z,101875.75
2022-07-30T05:46:34.966Z,101886.02
2022-07-30T05:49:02.767Z,101887.33
2022-07-30T05:51:30.613Z,101886.28
2022-07-30T05:53:58.305Z,101887.10
2022-07-30T05:56:26.020Z,101888.41
2022-07-30T05:58:53.690Z,101890.76
2022-07-30T06:01:21.468Z,101886.02
2022-07-30T06:03:49.211Z,101891.84
2022-07-30T06:06:22.475Z,101897.10
2022-07-30T06:08:51.333Z,101893.15
2022-07-30T06:11:19.151Z,101896.05
2022-07-30T06:13:46.879Z,101894.98
2022-07-30T06:16:14.693Z,101899.46
2022-07-30T06:18:42.404Z,101903.68
2022-07-30T06:21:10.117Z,101901.59
2022-07-30T06:23:37.802Z,101900.27
2022-07-30T06:26:05.676Z,101908.74
2022-07-30T06:28:38.440Z,101906.62
2022-07-30T06:31:07.421Z,101911.66
2022-07-30T06:33:35.243Z,101912.70
2022-07-30T06:36:03.042Z,101911.39
2022-07-30T06:38:30.825Z,101912.41
2022-07-30T06:41:02.538Z,101920.84
2022-07-30T06:43:31.932Z,101910.55
2022-07-30T06:45:59.808Z,101914.77
2022-07-30T06:48:27.916Z,101910.28
2022-07-30T06:50:55.579Z,101911.85
2022-07-30T06:53:23.299Z,101916.85
2022-07-30T06:55:53.040Z,101913.39
2022-07-30T06:58:26.273Z,101913.39
2022-07-30T07:00:53.981Z,101910.22
2022-07-30T07:03:21.926Z,101910.77
2022-07-30T07:05:49.666Z,101910.77
2022-07-30T07:08:17.356Z,101912.60
2022-07-30T07:10:45.332Z,101915.48
2022-07-30T07:13:13.051Z,101920.23
2022-07-30T07:15:40.918Z,101911.75
2022-07-30T07:18:08.645Z,101915.71
2022-07-30T07:20:36.552Z,101917.25
2022-07-30T07:23:09.259Z,101913.29
2022-07-30T07:25:40.142Z,101906.13
2022-07-30T07:28:11.700Z,101916.13
2022-07-30T07:30:42.377Z,101915.32
2022-07-30T07:33:11.082Z,101910.80
2022-07-30T07:35:48.378Z,101912.15
2022-07-30T07:38:21.085Z,101911.88
2022-07-30T07:40:49.168Z,101914.27
2022-07-30T07:43:17.101Z,101919.54
2022-07-30T07:45:45.175Z,101919.77
2022-07-30T07:48:13.200Z,101924.80
2022-07-30T07:50:41.244Z,101924.77
2022-07-30T07:53:08.969Z,101927.61
2022-07-30T07:55:37.019Z,101921.53
2022-07-30T07:58:04.895Z,101924.93
2022-07-30T08:00:32.696Z,101925.45
2022-07-30T08:03:00.500Z,101925.42
2022-07-30T08:05:56.820Z,101924.57
2022-07-30T08:08:16.090Z,101923.76
2022-07-30T08:10:43.771Z,101926.63
2022-07-30T08:13:52.728Z,101922.61
2022-07-30T08:15:59.377Z,101925.52
2022-07-30T08:18:27.065Z,101928.63
2022-07-30T08:20:55.407Z,101926.47
2022-07-30T08:23:23.522Z,101925.33
2022-07-30T08:25:51.217Z,101922.61
2022-07-30T08:28:35.328Z,101921.23
2022-07-30T08:31:04.421Z,101923.55
2022-07-30T08:33:32.169Z,101921.63
2022-07-30T08:36:02.962Z,101921.79
2022-07-30T08:38:32.491Z,101924.64
2022-07-30T08:41:00.450Z,101921.14
2022-07-30T08:43:28.450Z,101922.16
2022-07-30T08:45:58.082Z,101930.27
2022-07-30T08:48:26.459Z,101922.25
2022-07-30T08:50:55.236Z,101922.64
2022-07-30T08:53:23.368Z,101919.11
2022-07-30T08:55:52.112Z,101913.45
2022-07-30T08:58:31.212Z,101913.06
2022-07-30T09:00:59.136Z,101916.70
2022-07-30T09:03:27.035Z,101918.98
2022-07-30T09:05:54.771Z,101915.74
2022-07-30T09:08:22.480Z,101918.59
2022-07-30T09:10:53.095Z,101911.88
2022-07-30T09:13:33.465Z,101920.81
2022-07-30T09:16:02.350Z,101916.46
2022-07-30T09:18:31.365Z,101915.61
2022-07-30T09:21:27.962Z,101915.22
2022-07-30T09:24:12.464Z,101907.34
2022-07-30T09:26:56.146Z,101914.53
2022-07-30T09:29:26.670Z,101906.26
2022-07-30T09:32:06.130Z,101903.48
2022-07-30T09:34:40.038Z,101900.70
2022-07-30T09:37:10.737Z,101907.77
2022-07-30T09:39:56.293Z,101899.72
2022-07-30T09:42:29.320Z,101904.10
2022-07-30T09:45:26.054Z,101903.22
2022-07-30T09:48:03.565Z,101894.13
2022-07-30T09:50:31.470Z,101895.05
2022-07-30T09:53:12.008Z,101893.93
2022-07-30T09:55:41.949Z,101892.23
2022-07-30T09:58:12.814Z,101889.45
2022-07-30T10:00:45.457Z,101884.29
2022-07-30T10:03:34.507Z,101882.81
2022-07-30T10:06:11.194Z,101879.55
2022-07-30T10:08:45.949Z,101881.02
2022-07-30T10:11:31.156Z,101878.76
2022-07-30T10:14:00.505Z,101885.27
2022-07-30T10:16:29.866Z,101878.76
2022-07-30T10:19:01.733Z,101878.07
2022-07-30T10:21:32.625Z,101880.30
2022-07-30T10:24:04.059Z,101866.37
2022-07-30T10:26:36.194Z,101860.52
2022-07-30T10:29:05.025Z,101861.27
2022-07-30T10:31:48.443Z,101855.09
2022-07-30T10:34:23.744Z,101855.54
2022-07-30T10:36:59.426Z,101856.39
2022-07-30T10:39:38.452Z,101857.60
2022-07-30T10:42:24.215Z,101854.79
2022-07-30T10:44:54.740Z,101860.05
2022-07-30T10:47:33.581Z,101848.55
2022-07-30T10:50:27.709Z,101851.48
2022-07-30T10:53:02.314Z,101849.72
2022-07-30T10:55:39.010Z,101851.13
2022-07-30T10:58:15.601Z,101849.23
2022-07-30T11:00:55.757Z,101848.41
2022-07-30T11:03:41.236Z,101855.15
2022-07-30T11:06:24.423Z,101857.93
2022-07-30T11:08:57.128Z,101863.29
2022-07-30T11:11:28.686Z,101858.88
2022-07-30T11:14:13.810Z,101859.34
2022-07-30T11:16:42.314Z,101860.55
2022-07-30T11:19:55.015Z,101851.81
2022-07-30T11:22:30.071Z,101855.74
2022-07-30T11:24:58.072Z,101852.73
2022-07-30T11:27:45.762Z,101855.61
2022-07-30T11:30:16.859Z,101847.17
2022-07-30T11:32:48.323Z,101849.52
2022-07-30T11:35:32.313Z,101844.88
2022-07-30T11:38:22.361Z,101843.37
2022-07-30T11:40:50.254Z,101842.23
2022-07-30T11:43:36.038Z,101842.66
2022-07-30T11:46:28.860Z,101839.16
2022-07-30T11:48:59.332Z,101841.77
2022-07-30T11:51:27.899Z,101849.00
2022-07-30T11:54:05.962Z,101845.70
2022-07-30T11:56:34.300Z,101842.20
2022-07-30T11:59:08.397Z,101841.41
2022-07-30T12:01:37.104Z,101842.79
2022-07-30T12:04:10.246Z,101844.13
2022-07-30T12:06:48.529Z,101844.55
2022-07-30T12:09:29.765Z,101851.84
2022-07-30T12:11:58.341Z,101844.39
2022-07-30T12:14:26.541Z,101835.56
2022-07-30T12:16:55.469Z,101834.58
2022-07-30T12:19:23.333Z,101835.10
2022-07-30T12:21:53.585Z,101833.30
2022-07-30T12:24:27.749Z,101837.07
2022-07-30T12:27:06.459Z,101836.97
2022-07-30T12:29:36.350Z,101847.59
2022-07-30T12:32:04.427Z,101839.65
2022-07-30T12:34:32.258Z,101831.67
2022-07-30T12:37:10.172Z,101827.65
2022-07-30T12:39:38.199Z,101825.78
2022-07-30T12:42:08.406Z,101835.23
2022-07-30T12:44:42.167Z,101828.44
2022-07-30T12:47:27.177Z,101828.92
2022-07-30T12:49:56.790Z,101818.98
2022-07-30T12:52:33.688Z,101823.46
2022-07-30T12:55:12.721Z,101824.64
2022-07-30T12:58:08.381Z,101819.57
2022-07-30T13:00:45.792Z,101817.58
2022-07-30T13:03:27.244Z,101818.20
2022-07-30T13:05:57.343Z,101816.04
2022-07-30T13:09:04.151Z,101822.71
2022-07-30T13:11:48.998Z,101812.12
2022-07-30T13:14:18.291Z,101808.39
2022-07-30T13:16:46.729Z,101805.45
2022-07-30T13:19:14.541Z,101796.06
2022-07-30T13:21:49.868Z,101797.20
2022-07-30T13:24:18.760Z,101801.33
2022-07-30T13:26:47.288Z,101806.20
2022-07-30T13:29:19.080Z,101806.79
2022-07-30T13:31:46.835Z,101802.50
2022-07-30T13:34:14.649Z,101799.76
2022-07-30T13:36:42.863Z,101797.76
2022-07-30T13:39:10.768Z,101800.12
2022-07-30T13:41:38.545Z,101792.89
2022-07-30T13:44:06.727Z,101798.74
2022-07-30T13:46:34.685Z,101790.77
2022-07-30T13:49:02.512Z,101788.96
2022-07-30T13:51:30.305Z,101783.90
2022-07-30T13:53:58.091Z,101787.00
2022-07-30T13:56:25.778Z,101785.83
2022-07-30T13:58:53.531Z,101788.57
2022-07-30T14:01:21.448Z,101778.83
2022-07-30T14:03:51.019Z,101781.38
2022-07-30T14:06:20.342Z,101780.01
2022-07-30T14:08:48.219Z,101777.84
2022-07-30T14:11:16.668Z,101773.53
2022-07-30T14:13:44.678Z,101769.84
2022-07-30T14:16:28.867Z,101756.72
2022-07-30T14:19:01.519Z,101765.52
2022-07-30T14:21:29.239Z,101760.26
2022-07-30T14:23:57.569Z,101763.75
2022-07-30T14:26:25.361Z,101760.65
2022-07-30T14:28:58.083Z,101763.00
2022-07-30T14:31:25.796Z,101755.94
2022-07-30T14:33:53.482Z,101752.02
2022-07-30T14:36:21.234Z,101744.16
2022-07-30T14:38:48.921Z,101755.55
2022-07-30T14:41:16.595Z,101746.72
2022-07-30T14:43:44.381Z,101742.79
2022-07-30T14:46:12.138Z,101751.39
2022-07-30T14:48:40.032Z,101753.91
2022-07-30T14:51:17.654Z,101747.24
2022-07-30T14:53:47.830Z,101749.98
2022-07-30T14:56:17.758Z,101750.97
2022-07-30T14:58:45.747Z,101751.55
2022-07-30T15:01:15.894Z,101754.34
2022-07-30T15:03:45.175Z,101754.95
2022-07-30T15:06:14.051Z,101754.73
2022-07-30T15:08:41.920Z,101757.09
2022-07-30T15:11:09.837Z,101745.73
2022-07-30T15:13:41.103Z,101750.41
2022-07-30T15:16:18.698Z,101744.55
2022-07-30T15:18:46.490Z,101745.57
2022-07-30T15:21:14.339Z,101740.83
2022-07-30T15:23:42.288Z,101742.79
2022-07-30T15:26:10.160Z,101749.66
2022-07-30T15:28:37.972Z,101751.78
2022-07-30T15:31:05.741Z,101748.84
2022-07-30T15:33:36.960Z,101749.01
2022-07-30T15:36:05.153Z,101757.41
2022-07-30T15:38:32.804Z,101750.77
2022-07-30T15:41:00.928Z,101749.20
2022-07-30T15:43:28.624Z,101758.00
2022-07-30T15:45:56.710Z,101745.08
2022-07-30T15:48:27.209Z,101740.21
2022-07-30T15:51:05.544Z,101739.69
2022-07-30T15:53:33.934Z,101737.13
2022-07-30T15:56:01.683Z,101741.42
2022-07-30T15:58:29.597Z,101744.16
2022-07-30T16:00:57.457Z,101740.83
2022-07-30T16:03:25.207Z,101747.47
2022-07-30T16:05:53.111Z,101736.91
2022-07-30T16:08:24.396Z,101737.73
2022-07-30T16:10:53.064Z,101738.48
2022-07-30T16:13:20.970Z,101744.16
2022-07-30T16:15:48.689Z,101732.23
2022-07-30T16:18:16.378Z,101735.17
2022-07-30T16:20:44.205Z,101734.23
2022-07-30T16:23:14.076Z,101746.52
2022-07-30T16:25:43.633Z,101740.05
2022-07-30T16:28:11.425Z,101745.93
2022-07-30T16:30:50.483Z,101738.87
2022-07-30T16:33:20.163Z,101738.48
2022-07-30T16:35:48.942Z,101732.55
2022-07-30T16:38:18.206Z,101725.13
2022-07-30T16:40:46.438Z,101727.88
2022-07-30T16:43:16.217Z,101723.56
2022-07-30T16:45:44.837Z,101720.63
2022-07-30T16:48:13.124Z,101726.48
2022-07-30T16:50:41.898Z,101719.61
2022-07-30T16:53:14.118Z,101722.48
2022-07-30T16:55:42.977Z,101727.33
2022-07-30T16:58:12.045Z,101736.13
2022-07-30T17:00:40.283Z,101725.13
2022-07-30T17:03:08.384Z,101719.22
2022-07-30T17:05:37.784Z,101734.81
2022-07-30T17:08:13.065Z,101726.21
2022-07-30T17:10:41.920Z,101726.38
2022-07-30T17:13:09.770Z,101733.38
2022-07-30T17:15:37.484Z,101723.59
2022-07-30T17:18:05.673Z,101728.66
2022-07-30T17:20:33.592Z,101719.31
2022-07-30T17:23:01.330Z,101726.57
2022-07-30T17:25:30.199Z,101723.66
2022-07-30T17:27:59.528Z,101724.91
2022-07-30T17:30:28.705Z,101727.65
2022-07-30T17:32:56.812Z,101725.36
2022-07-30T17:35:25.874Z,101724.80
2022-07-30T17:37:53.981Z,101727.33
2022-07-30T17:40:29.820Z,101734.98
2022-07-30T17:43:06.711Z,101738.12
2022-07-30T17:45:36.442Z,101739.49
2022-07-30T17:48:05.589Z,101735.37
2022-07-30T17:50:34.726Z,101745.15
2022-07-30T17:53:04.405Z,101748.29
2022-07-30T17:55:32.709Z,101747.70
2022-07-30T17:58:00.471Z,101749.27
2022-07-30T18:00:28.217Z,101761.01
2022-07-30T18:02:55.940Z,101751.03
2022-07-30T18:05:24.055Z,101765.45
2022-07-30T18:07:51.839Z,101762.31
2022-07-30T18:10:20.494Z,101758.98
2022-07-30T18:12:48.945Z,101762.84
2022-07-30T18:15:18.638Z,101748.35
2022-07-30T18:17:46.497Z,101751.46
2022-07-30T18:20:14.838Z,101767.05
2022-07-30T18:22:42.701Z,101767.77
2022-07-30T18:25:17.994Z,101756.79
2022-07-30T18:27:48.244Z,101763.23
2022-07-30T18:30:16.234Z,101770.00
2022-07-30T18:32:46.882Z,101776.02
2022-07-30T18:35:15.510Z,101765.62
2022-07-30T18:37:44.526Z,101775.13
2022-07-30T18:40:14.514Z,101783.21
2022-07-30T18:42:42.461Z,101773.01
2022-07-30T18:45:11.507Z,101775.88
2022-07-30T18:47:39.270Z,101780.70
2022-07-30T18:50:07.664Z,101791.16
2022-07-30T18:52:35.548Z,101785.23
2022-07-30T18:55:03.640Z,101792.01
2022-07-30T18:57:31.337Z,101799.37
2022-07-30T18:59:59.055Z,101800.09
2022-07-30T19:02:26.828Z,101807.84
2022-07-30T19:04:55.111Z,101813.23
2022-07-30T19:07:24.492Z,101802.24
2022-07-30T19:09:56.421Z,101807.63
2022-07-30T19:12:24.100Z,101804.62
2022-07-30T19:14:51.790Z,101807.34
2022-07-30T19:17:19.545Z,101808.81
2022-07-30T19:19:47.968Z,101817.38
2022-07-30T19:22:16.771Z,101821.99
2022-07-30T19:24:57.337Z,101822.32
2022-07-30T19:27:25.531Z,101831.77
2022-07-30T19:29:53.262Z,101834.81
2022-07-30T19:32:21.168Z,101837.07
2022-07-30T19:34:48.846Z,101836.61
2022-07-30T19:37:16.670Z,101833.80
2022-07-30T19:40:05.206Z,101836.84
2022-07-30T19:42:32.266Z,101837.49
2022-07-30T19:45:11.181Z,101842.66
2022-07-30T19:47:42.319Z,101847.04
2022-07-30T19:50:11.594Z,101846.35
2022-07-30T19:52:40.078Z,101846.22
2022-07-30T19:55:30.590Z,101855.09
2022-07-30T19:58:02.659Z,101855.74
2022-07-30T20:00:31.544Z,101857.99
2022-07-30T20:03:03.793Z,101863.91
2022-07-30T20:05:32.678Z,101866.14
2022-07-30T20:08:24.777Z,101867.58
2022-07-30T20:10:52.890Z,101869.99
2022-07-30T20:13:20.790Z,101867.18
2022-07-30T20:15:50.704Z,101870.20
2022-07-30T20:18:28.852Z,101871.83
2022-07-30T20:20:57.641Z,101874.84
2022-07-30T20:23:26.194Z,101879.38
2022-07-30T20:25:55.660Z,101881.05
2022-07-30T20:28:23.472Z,101885.66
2022-07-30T20:30:53.749Z,101881.48
2022-07-30T20:33:22.548Z,101880.98
2022-07-30T20:36:09.903Z,101873.10
2022-07-30T20:38:40.304Z,101878.47
2022-07-30T20:41:10.121Z,101876.11
2022-07-30T20:43:45.926Z,101884.58
2022-07-30T20:46:19.479Z,101886.51
2022-07-30T20:48:47.315Z,101889.19
2022-07-30T20:51:15.637Z,101889.71
2022-07-30T20:53:45.256Z,101882.88
2022-07-30T20:56:13.863Z,101887.66
2022-07-30T20:58:46.018Z,101888.24
2022-07-30T21:01:17.596Z,101890.92
2022-07-30T21:03:48.166Z,101892.00
2022-07-30T21:06:17.935Z,101887.26
2022-07-30T21:08:45.697Z,101887.55
2022-07-30T21:11:14.499Z,101890.23
2022-07-30T21:13:42.395Z,101897.95
2022-07-30T21:16:16.203Z,101895.11
2022-07-30T21:18:49.298Z,101891.12
2022-07-30T21:21:30.655Z,101893.57
2022-07-30T21:24:12.863Z,101895.21
2022-07-30T21:26:43.119Z,101900.02
2022-07-30T21:29:11.237Z,101896.62
2022-07-30T21:31:56.047Z,101894.00
2022-07-30T21:34:30.913Z,101898.77
2022-07-30T21:37:03.232Z,101903.61
2022-07-30T21:39:30.975Z,101900.99
2022-07-30T21:41:58.753Z,101901.81
2022-07-30T21:44:26.433Z,101906.62
2022-07-30T21:46:54.774Z,101895.27
2022-07-30T21:49:24.029Z,101897.95
2022-07-30T21:51:51.842Z,101900.34
2022-07-30T21:54:29.199Z,101894.29
2022-07-30T21:56:58.827Z,101896.71
2022-07-30T21:59:27.619Z,101902.27
2022-07-30T22:01:56.317Z,101916.59
2022-07-30T22:04:24.564Z,101908.16
2022-07-30T22:06:54.998Z,101906.33
2022-07-30T22:09:33.482Z,101908.19
2022-07-30T22:12:09.990Z,101902.96
2022-07-30T22:14:40.693Z,101903.48
2022-07-30T22:17:22.550Z,101905.90
2022-07-30T22:19:52.622Z,101906.95
2022-07-30T22:22:27.250Z,101916.27
2022-07-30T22:24:58.322Z,101912.31
2022-07-30T22:27:28.273Z,101908.88
2022-07-30T22:30:09.405Z,101913.09
2022-07-30T22:32:37.324Z,101904.69
2022-07-30T22:35:07.982Z,101906.52
2022-07-30T22:37:37.726Z,101906.29
2022-07-30T22:40:08.107Z,101913.98
2022-07-30T22:42:46.690Z,101905.77
2022-07-30T22:45:36.053Z,101904.20
2022-07-30T22:48:10.185Z,101912.70
2022-07-30T22:50:40.255Z,101911.63
2022-07-30T22:53:23.698Z,101919.60
2022-07-30T22:55:57.028Z,101911.91
2022-07-30T22:58:26.296Z,101910.09
2022-07-30T23:00:54.500Z,101913.55
2022-07-30T23:03:22.328Z,101905.12
2022-07-30T23:05:55.084Z,101904.85
2022-07-30T23:08:29.905Z,101905.93
2022-07-30T23:11:00.501Z,101909.92
2022-07-30T23:13:29.509Z,101910.97
2022-07-30T23:15:57.329Z,101907.83
2022-07-30T23:18:25.076Z,101918.98
2022-07-30T23:20:55.096Z,101918.72
2022-07-30T23:23:26.153Z,101918.49
2022-07-30T23:25:58.477Z,101913.95
2022-07-30T23:28:26.217Z,101914.27
2022-07-30T23:30:53.889Z,101918.49
2022-07-30T23:33:21.733Z,101914.30
2022-07-30T23:35:49.934Z,101917.73
2022-07-30T23:38:17.789Z,101914.56
2022-07-30T23:40:45.871Z,101917.77
2022-07-30T23:43:13.583Z,101917.21
2022-07-30T23:45:41.588Z,101911.98
2022-07-30T23:48:09.286Z,101907.24
2022-07-30T23:50:37.133Z,101914.89
2022-07-30T23:53:06.012Z,101912.51
2022-07-30T23:55:33.898Z,101914.37
2022-07-30T23:58:01.803Z,101914.11
